sensor_id;sensor_type;location;lat;lon;timestamp;temperature;humidity
7196;DHT22;3639;51.308;5.624;2022-09-01T00:01:17;17.50;96.10
7196;DHT22;3639;51.308;5.624;2022-09-01T00:03:49;17.50;96.10
7196;DHT22;3639;51.308;5.624;2022-09-01T00:06:18;17.40;96.00
7196;DHT22;3639;51.308;5.624;2022-09-01T00:08:56;17.40;96.10
7196;DHT22;3639;51.308;5.624;2022-09-01T00:11:24;17.30;96.10
7196;DHT22;3639;51.308;5.624;2022-09-01T00:13:51;17.30;96.20
7196;DHT22;3639;51.308;5.624;2022-09-01T00:16:18;17.30;96.00
7196;DHT22;3639;51.308;5.624;2022-09-01T00:18:47;17.20;96.10
7196;DHT22;3639;51.308;5.624;2022-09-01T00:21:20;17.10;96.10
7196;DHT22;3639;51.308;5.624;2022-09-01T00:23:46;17.10;96.10
7196;DHT22;3639;51.308;5.624;2022-09-01T00:26:12;17.10;96.00
7196;DHT22;3639;51.308;5.624;2022-09-01T00:28:38;17.00;96.10
7196;DHT22;3639;51.308;5.624;2022-09-01T00:31:04;17.00;96.10
7196;DHT22;3639;51.308;5.624;2022-09-01T00:33:31;17.00;96.10
7196;DHT22;3639;51.308;5.624;2022-09-01T00:35:57;16.90;96.10
7196;DHT22;3639;51.308;5.624;2022-09-01T00:38:23;16.90;96.10
7196;DHT22;3639;51.308;5.624;2022-09-01T00:40:49;16.90;96.20
7196;DHT22;3639;51.308;5.624;2022-09-01T00:43:21;16.80;96.10
7196;DHT22;3639;51.308;5.624;2022-09-01T00:45:48;16.80;96.10
7196;DHT22;3639;51.308;5.624;2022-09-01T00:48:16;16.80;96.10
7196;DHT22;3639;51.308;5.624;2022-09-01T00:50:45;16.70;96.10
7196;DHT22;3639;51.308;5.624;2022-09-01T00:53:11;16.70;96.20
7196;DHT22;3639;51.308;5.624;2022-09-01T00:55:38;16.70;96.10
7196;DHT22;3639;51.308;5.624;2022-09-01T00:58:06;16.70;96.20
7196;DHT22;3639;51.308;5.624;2022-09-01T01:00:35;16.60;96.20
7196;DHT22;3639;51.308;5.624;2022-09-01T01:03:10;16.60;96.30
7196;DHT22;3639;51.308;5.624;2022-09-01T01:05:43;16.50;96.30
7196;DHT22;3639;51.308;5.624;2022-09-01T01:08:16;16.50;96.40
7196;DHT22;3639;51.308;5.624;2022-09-01T01:10:44;16.40;96.30
7196;DHT22;3639;51.308;5.624;2022-09-01T01:13:13;16.40;96.40
7196;DHT22;3639;51.308;5.624;2022-09-01T01:15:40;16.40;96.40
7196;DHT22;3639;51.308;5.624;2022-09-01T01:18:12;16.30;96.40
7196;DHT22;3639;51.308;5.624;2022-09-01T01:20:38;16.30;96.60
7196;DHT22;3639;51.308;5.624;2022-09-01T01:23:46;16.30;96.60
7196;DHT22;3639;51.308;5.624;2022-09-01T01:26:13;16.20;96.70
7196;DHT22;3639;51.308;5.624;2022-09-01T01:28:40;16.20;96.70
7196;DHT22;3639;51.308;5.624;2022-09-01T01:31:13;16.20;96.70
7196;DHT22;3639;51.308;5.624;2022-09-01T01:33:49;16.20;96.70
7196;DHT22;3639;51.308;5.624;2022-09-01T01:36:37;16.10;96.80
7196;DHT22;3639;51.308;5.624;2022-09-01T01:39:11;16.10;96.90
7196;DHT22;3639;51.308;5.624;2022-09-01T01:41:38;16.10;96.90
7196;DHT22;3639;51.308;5.624;2022-09-01T01:44:12;16.00;96.90
7196;DHT22;3639;51.308;5.624;2022-09-01T01:46:43;16.00;97.00
7196;DHT22;3639;51.308;5.624;2022-09-01T01:49:11;15.90;97.00
7196;DHT22;3639;51.308;5.624;2022-09-01T01:51:38;15.90;97.10
7196;DHT22;3639;51.308;5.624;2022-09-01T01:54:04;15.90;97.20
7196;DHT22;3639;51.308;5.624;2022-09-01T01:56:31;15.80;97.20
7196;DHT22;3639;51.308;5.624;2022-09-01T01:58:57;15.80;97.30
7196;DHT22;3639;51.308;5.624;2022-09-01T02:01:25;15.70;97.30
7196;DHT22;3639;51.308;5.624;2022-09-01T02:03:54;15.70;97.30
7196;DHT22;3639;51.308;5.624;2022-09-01T02:06:20;15.70;97.30
7196;DHT22;3639;51.308;5.624;2022-09-01T02:08:50;15.60;97.30
7196;DHT22;3639;51.308;5.624;2022-09-01T02:11:17;15.60;97.40
7196;DHT22;3639;51.308;5.624;2022-09-01T02:13:43;15.60;97.50
7196;DHT22;3639;51.308;5.624;2022-09-01T02:16:11;15.50;97.60
7196;DHT22;3639;51.308;5.624;2022-09-01T02:18:42;15.50;98.00
7196;DHT22;3639;51.308;5.624;2022-09-01T02:21:13;15.50;97.70
7196;DHT22;3639;51.308;5.624;2022-09-01T02:23:43;15.50;97.70
7196;DHT22;3639;51.308;5.624;2022-09-01T02:26:09;15.50;97.80
7196;DHT22;3639;51.308;5.624;2022-09-01T02:28:39;15.40;97.80
7196;DHT22;3639;51.308;5.624;2022-09-01T02:31:08;15.40;97.90
7196;DHT22;3639;51.308;5.624;2022-09-01T02:33:36;15.40;97.90
7196;DHT22;3639;51.308;5.624;2022-09-01T02:36:09;15.30;98.00
7196;DHT22;3639;51.308;5.624;2022-09-01T02:38:38;15.30;98.10
7196;DHT22;3639;51.308;5.624;2022-09-01T02:41:07;15.20;98.10
7196;DHT22;3639;51.308;5.624;2022-09-01T02:43:33;15.20;98.20
7196;DHT22;3639;51.308;5.624;2022-09-01T02:46:00;15.20;98.30
7196;DHT22;3639;51.308;5.624;2022-09-01T02:48:35;15.10;98.40
7196;DHT22;3639;51.308;5.624;2022-09-01T02:51:07;15.10;98.40
7196;DHT22;3639;51.308;5.624;2022-09-01T02:53:33;15.10;98.50
7196;DHT22;3639;51.308;5.624;2022-09-01T02:56:01;15.00;98.50
7196;DHT22;3639;51.308;5.624;2022-09-01T02:58:29;15.00;98.60
7196;DHT22;3639;51.308;5.624;2022-09-01T03:00:57;15.00;98.70
7196;DHT22;3639;51.308;5.624;2022-09-01T03:03:24;14.90;98.70
7196;DHT22;3639;51.308;5.624;2022-09-01T03:05:51;14.90;98.80
7196;DHT22;3639;51.308;5.624;2022-09-01T03:08:22;14.90;98.80
7196;DHT22;3639;51.308;5.624;2022-09-01T03:10:49;14.90;98.80
7196;DHT22;3639;51.308;5.624;2022-09-01T03:13:19;14.80;98.90
7196;DHT22;3639;51.308;5.624;2022-09-01T03:15:46;14.90;99.00
7196;DHT22;3639;51.308;5.624;2022-09-01T03:18:13;14.80;99.10
7196;DHT22;3639;51.308;5.624;2022-09-01T03:20:40;14.80;99.10
7196;DHT22;3639;51.308;5.624;2022-09-01T03:23:12;14.80;99.10
7196;DHT22;3639;51.308;5.624;2022-09-01T03:25:41;14.80;99.10
7196;DHT22;3639;51.308;5.624;2022-09-01T03:28:06;14.80;99.20
7196;DHT22;3639;51.308;5.624;2022-09-01T03:30:34;14.80;99.20
7196;DHT22;3639;51.308;5.624;2022-09-01T03:33:07;14.70;99.30
7196;DHT22;3639;51.308;5.624;2022-09-01T03:35:32;14.70;99.30
7196;DHT22;3639;51.308;5.624;2022-09-01T03:37:59;14.60;99.50
7196;DHT22;3639;51.308;5.624;2022-09-01T03:40:32;14.60;99.60
7196;DHT22;3639;51.308;5.624;2022-09-01T03:43:02;14.60;99.50
7196;DHT22;3639;51.308;5.624;2022-09-01T03:45:29;14.50;99.60
7196;DHT22;3639;51.308;5.624;2022-09-01T03:47:58;14.40;99.70
7196;DHT22;3639;51.308;5.624;2022-09-01T03:50:24;14.40;99.90
7196;DHT22;3639;51.308;5.624;2022-09-01T03:52:55;14.30;99.90
7196;DHT22;3639;51.308;5.624;2022-09-01T03:55:32;14.30;99.90
7196;DHT22;3639;51.308;5.624;2022-09-01T03:58:04;14.20;99.90
7196;DHT22;3639;51.308;5.624;2022-09-01T04:00:32;14.20;99.90
7196;DHT22;3639;51.308;5.624;2022-09-01T04:03:01;14.20;99.90
7196;DHT22;3639;51.308;5.624;2022-09-01T04:05:29;14.20;99.90
7196;DHT22;3639;51.308;5.624;2022-09-01T04:07:57;14.20;99.90
7196;DHT22;3639;51.308;5.624;2022-09-01T04:10:23;14.20;99.90
7196;DHT22;3639;51.308;5.624;2022-09-01T04:12:49;14.10;99.90
7196;DHT22;3639;51.308;5.624;2022-09-01T04:15:16;14.10;99.90
7196;DHT22;3639;51.308;5.624;2022-09-01T04:17:43;14.10;99.90
7196;DHT22;3639;51.308;5.624;2022-09-01T04:20:28;14.10;99.90
7196;DHT22;3639;51.308;5.624;2022-09-01T04:22:53;14.00;99.90
7196;DHT22;3639;51.308;5.624;2022-09-01T04:25:20;14.00;99.90
7196;DHT22;3639;51.308;5.624;2022-09-01T04:27:50;14.00;99.90
7196;DHT22;3639;51.308;5.624;2022-09-01T04:30:20;14.00;99.90
7196;DHT22;3639;51.308;5.624;2022-09-01T04:32:49;13.90;99.90
7196;DHT22;3639;51.308;5.624;2022-09-01T04:35:16;13.90;99.90
7196;DHT22;3639;51.308;5.624;2022-09-01T04:37:43;13.90;99.90
7196;DHT22;3639;51.308;5.624;2022-09-01T04:40:10;13.90;99.90
7196;DHT22;3639;51.308;5.624;2022-09-01T04:42:38;13.80;99.90
7196;DHT22;3639;51.308;5.624;2022-09-01T04:45:06;13.80;99.90
7196;DHT22;3639;51.308;5.624;2022-09-01T04:47:35;13.80;99.90
7196;DHT22;3639;51.308;5.624;2022-09-01T04:50:07;13.80;99.90
7196;DHT22;3639;51.308;5.624;2022-09-01T04:52:43;13.80;99.90
7196;DHT22;3639;51.308;5.624;2022-09-01T04:55:10;13.70;99.90
7196;DHT22;3639;51.308;5.624;2022-09-01T04:57:43;13.70;99.90
7196;DHT22;3639;51.308;5.624;2022-09-01T05:00:13;13.70;99.90
7196;DHT22;3639;51.308;5.624;2022-09-01T05:02:49;13.70;99.90
7196;DHT22;3639;51.308;5.624;2022-09-01T05:05:17;13.70;99.90
7196;DHT22;3639;51.308;5.624;2022-09-01T05:07:43;13.70;99.90
7196;DHT22;3639;51.308;5.624;2022-09-01T05:10:10;13.70;99.90
7196;DHT22;3639;51.308;5.624;2022-09-01T05:12:36;13.60;99.90
7196;DHT22;3639;51.308;5.624;2022-09-01T05:15:02;13.60;99.90
7196;DHT22;3639;51.308;5.624;2022-09-01T05:17:31;13.60;99.90
7196;DHT22;3639;51.308;5.624;2022-09-01T05:19:56;13.60;99.90
7196;DHT22;3639;51.308;5.624;2022-09-01T05:22:22;13.60;99.90
7196;DHT22;3639;51.308;5.624;2022-09-01T05:24:48;13.60;99.90
7196;DHT22;3639;51.308;5.624;2022-09-01T05:27:16;13.60;99.90
7196;DHT22;3639;51.308;5.624;2022-09-01T05:29:43;13.60;99.90
7196;DHT22;3639;51.308;5.624;2022-09-01T05:32:11;13.60;99.90
7196;DHT22;3639;51.308;5.624;2022-09-01T05:34:38;13.60;99.90
7196;DHT22;3639;51.308;5.624;2022-09-01T05:37:05;13.60;99.90
7196;DHT22;3639;51.308;5.624;2022-09-01T05:39:33;13.60;99.90
7196;DHT22;3639;51.308;5.624;2022-09-01T05:42:00;13.60;99.90
7196;DHT22;3639;51.308;5.624;2022-09-01T05:44:28;13.70;99.90
7196;DHT22;3639;51.308;5.624;2022-09-01T05:46:57;13.70;99.90
7196;DHT22;3639;51.308;5.624;2022-09-01T05:49:25;13.80;99.90
7196;DHT22;3639;51.308;5.624;2022-09-01T05:51:52;13.90;99.90
7196;DHT22;3639;51.308;5.624;2022-09-01T05:54:23;13.90;99.90
7196;DHT22;3639;51.308;5.624;2022-09-01T05:56:52;14.00;99.90
7196;DHT22;3639;51.308;5.624;2022-09-01T05:59:20;14.00;99.90
7196;DHT22;3639;51.308;5.624;2022-09-01T06:01:48;14.10;99.90
7196;DHT22;3639;51.308;5.624;2022-09-01T06:04:14;14.20;99.90
7196;DHT22;3639;51.308;5.624;2022-09-01T06:06:46;14.20;99.90
7196;DHT22;3639;51.308;5.624;2022-09-01T06:09:15;14.30;99.90
7196;DHT22;3639;51.308;5.624;2022-09-01T06:11:43;14.30;99.90
7196;DHT22;3639;51.308;5.624;2022-09-01T06:14:12;14.40;99.90
7196;DHT22;3639;51.308;5.624;2022-09-01T06:16:37;14.50;99.90
7196;DHT22;3639;51.308;5.624;2022-09-01T06:19:04;14.50;99.90
7196;DHT22;3639;51.308;5.624;2022-09-01T06:21:29;14.60;99.90
7196;DHT22;3639;51.308;5.624;2022-09-01T06:23:56;14.60;99.90
7196;DHT22;3639;51.308;5.624;2022-09-01T06:26:24;14.70;99.90
7196;DHT22;3639;51.308;5.624;2022-09-01T06:29:00;14.80;99.90
7196;DHT22;3639;51.308;5.624;2022-09-01T06:31:32;14.90;99.90
7196;DHT22;3639;51.308;5.624;2022-09-01T06:34:05;15.00;99.90
7196;DHT22;3639;51.308;5.624;2022-09-01T06:36:31;15.10;99.90
7196;DHT22;3639;51.308;5.624;2022-09-01T06:38:57;15.20;99.90
7196;DHT22;3639;51.308;5.624;2022-09-01T06:41:27;15.30;99.90
7196;DHT22;3639;51.308;5.624;2022-09-01T06:43:53;15.40;99.90
7196;DHT22;3639;51.308;5.624;2022-09-01T06:46:20;15.50;99.90
7196;DHT22;3639;51.308;5.624;2022-09-01T06:48:47;15.70;99.90
7196;DHT22;3639;51.308;5.624;2022-09-01T06:51:18;15.80;99.90
7196;DHT22;3639;51.308;5.624;2022-09-01T06:53:47;15.90;99.90
7196;DHT22;3639;51.308;5.624;2022-09-01T06:56:21;16.00;99.90
7196;DHT22;3639;51.308;5.624;2022-09-01T06:58:51;16.00;99.90
7196;DHT22;3639;51.308;5.624;2022-09-01T07:01:18;16.10;99.90
7196;DHT22;3639;51.308;5.624;2022-09-01T07:03:48;16.20;99.90
7196;DHT22;3639;51.308;5.624;2022-09-01T07:06:16;16.40;99.90
7196;DHT22;3639;51.308;5.624;2022-09-01T07:08:43;16.50;99.90
7196;DHT22;3639;51.308;5.624;2022-09-01T07:11:22;16.60;99.90
7196;DHT22;3639;51.308;5.624;2022-09-01T07:13:53;16.70;99.90
7196;DHT22;3639;51.308;5.624;2022-09-01T07:16:22;16.90;99.90
7196;DHT22;3639;51.308;5.624;2022-09-01T07:18:53;17.00;99.90
7196;DHT22;3639;51.308;5.624;2022-09-01T07:21:21;17.20;99.90
7196;DHT22;3639;51.308;5.624;2022-09-01T07:23:47;17.30;99.90
7196;DHT22;3639;51.308;5.624;2022-09-01T07:26:13;17.50;99.90
7196;DHT22;3639;51.308;5.624;2022-09-01T07:28:45;17.60;99.90
7196;DHT22;3639;51.308;5.624;2022-09-01T07:31:19;17.70;99.90
7196;DHT22;3639;51.308;5.624;2022-09-01T07:33:50;17.90;99.90
7196;DHT22;3639;51.308;5.624;2022-09-01T07:36:17;18.00;99.90
7196;DHT22;3639;51.308;5.624;2022-09-01T07:38:43;18.20;99.90
7196;DHT22;3639;51.308;5.624;2022-09-01T07:41:10;18.30;99.90
7196;DHT22;3639;51.308;5.624;2022-09-01T07:43:39;18.40;99.90
7196;DHT22;3639;51.308;5.624;2022-09-01T07:46:07;18.60;99.90
7196;DHT22;3639;51.308;5.624;2022-09-01T07:48:33;18.70;99.90
7196;DHT22;3639;51.308;5.624;2022-09-01T07:50:59;18.80;99.90
7196;DHT22;3639;51.308;5.624;2022-09-01T07:53:29;19.00;99.90
7196;DHT22;3639;51.308;5.624;2022-09-01T07:55:57;19.20;99.90
7196;DHT22;3639;51.308;5.624;2022-09-01T07:58:26;19.40;99.90
7196;DHT22;3639;51.308;5.624;2022-09-01T08:00:53;19.40;99.90
7196;DHT22;3639;51.308;5.624;2022-09-01T08:03:22;19.50;99.90
7196;DHT22;3639;51.308;5.624;2022-09-01T08:05:48;19.50;99.90
7196;DHT22;3639;51.308;5.624;2022-09-01T08:08:18;19.70;99.90
7196;DHT22;3639;51.308;5.624;2022-09-01T08:10:44;19.80;99.60
7196;DHT22;3639;51.308;5.624;2022-09-01T08:13:11;19.90;99.40
7196;DHT22;3639;51.308;5.624;2022-09-01T08:15:39;20.00;99.40
7196;DHT22;3639;51.308;5.624;2022-09-01T08:18:05;20.00;99.30
7196;DHT22;3639;51.308;5.624;2022-09-01T08:20:31;20.10;99.60
7196;DHT22;3639;51.308;5.624;2022-09-01T08:23:00;20.30;99.70
7196;DHT22;3639;51.308;5.624;2022-09-01T08:25:26;20.40;99.20
7196;DHT22;3639;51.308;5.624;2022-09-01T08:27:52;20.50;99.50
7196;DHT22;3639;51.308;5.624;2022-09-01T08:30:18;20.70;99.10
7196;DHT22;3639;51.308;5.624;2022-09-01T08:32:43;20.90;98.50
7196;DHT22;3639;51.308;5.624;2022-09-01T08:35:10;21.00;98.70
7196;DHT22;3639;51.308;5.624;2022-09-01T08:37:37;21.10;98.40
7196;DHT22;3639;51.308;5.624;2022-09-01T08:40:05;21.10;98.10
7196;DHT22;3639;51.308;5.624;2022-09-01T08:43:04;21.10;98.00
7196;DHT22;3639;51.308;5.624;2022-09-01T08:45:51;21.20;97.90
7196;DHT22;3639;51.308;5.624;2022-09-01T08:48:42;21.30;97.80
7196;DHT22;3639;51.308;5.624;2022-09-01T08:56:31;21.50;97.50
7196;DHT22;3639;51.308;5.624;2022-09-01T08:59:03;21.60;97.30
7196;DHT22;3639;51.308;5.624;2022-09-01T09:06:52;21.80;97.10
7196;DHT22;3639;51.308;5.624;2022-09-01T09:09:30;21.80;96.90
7196;DHT22;3639;51.308;5.624;2022-09-01T09:17:01;22.20;96.00
7196;DHT22;3639;51.308;5.624;2022-09-01T09:19:32;22.20;95.60
7196;DHT22;3639;51.308;5.624;2022-09-01T09:22:01;22.30;95.70
7196;DHT22;3639;51.308;5.624;2022-09-01T09:24:33;22.40;94.80
7196;DHT22;3639;51.308;5.624;2022-09-01T09:27:21;22.40;95.00
7196;DHT22;3639;51.308;5.624;2022-09-01T09:29:50;22.60;94.90
7196;DHT22;3639;51.308;5.624;2022-09-01T09:32:17;22.60;94.40
7196;DHT22;3639;51.308;5.624;2022-09-01T09:34:43;22.70;94.30
7196;DHT22;3639;51.308;5.624;2022-09-01T09:37:29;22.80;93.90
7196;DHT22;3639;51.308;5.624;2022-09-01T09:40:14;22.90;94.30
7196;DHT22;3639;51.308;5.624;2022-09-01T09:45:25;23.10;92.70
7196;DHT22;3639;51.308;5.624;2022-09-01T09:47:53;23.20;93.20
7196;DHT22;3639;51.308;5.624;2022-09-01T09:50:32;23.50;93.20
7196;DHT22;3639;51.308;5.624;2022-09-01T09:53:14;23.60;91.90
7196;DHT22;3639;51.308;5.624;2022-09-01T09:58:21;23.90;91.60
7196;DHT22;3639;51.308;5.624;2022-09-01T10:01:10;24.00;90.90
7196;DHT22;3639;51.308;5.624;2022-09-01T10:03:51;24.00;89.90
7196;DHT22;3639;51.308;5.624;2022-09-01T10:06:36;24.00;90.30
7196;DHT22;3639;51.308;5.624;2022-09-01T10:09:06;24.00;90.40
7196;DHT22;3639;51.308;5.624;2022-09-01T10:11:42;23.80;90.00
7196;DHT22;3639;51.308;5.624;2022-09-01T10:14:28;23.60;88.80
7196;DHT22;3639;51.308;5.624;2022-09-01T10:17:02;23.60;88.30
7196;DHT22;3639;51.308;5.624;2022-09-01T10:19:32;23.60;89.60
7196;DHT22;3639;51.308;5.624;2022-09-01T10:21:59;23.70;88.10
7196;DHT22;3639;51.308;5.624;2022-09-01T10:24:30;23.80;89.10
7196;DHT22;3639;51.308;5.624;2022-09-01T10:26:59;24.00;87.90
7196;DHT22;3639;51.308;5.624;2022-09-01T10:29:42;24.10;88.20
7196;DHT22;3639;51.308;5.624;2022-09-01T10:32:17;24.20;86.10
7196;DHT22;3639;51.308;5.624;2022-09-01T10:34:45;24.10;85.30
7196;DHT22;3639;51.308;5.624;2022-09-01T10:37:12;24.20;85.00
7196;DHT22;3639;51.308;5.624;2022-09-01T10:40:33;24.20;85.00
7196;DHT22;3639;51.308;5.624;2022-09-01T10:45:57;24.60;84.80
7196;DHT22;3639;51.308;5.624;2022-09-01T10:48:29;24.60;82.60
7196;DHT22;3639;51.308;5.624;2022-09-01T10:53:56;24.70;83.40
7196;DHT22;3639;51.308;5.624;2022-09-01T11:07:03;25.10;78.70
7196;DHT22;3639;51.308;5.624;2022-09-01T11:17:54;24.70;78.50
7196;DHT22;3639;51.308;5.624;2022-09-01T11:23:22;24.70;77.50
7196;DHT22;3639;51.308;5.624;2022-09-01T11:25:59;24.50;76.10
7196;DHT22;3639;51.308;5.624;2022-09-01T11:33:44;24.50;76.00
7196;DHT22;3639;51.308;5.624;2022-09-01T11:37:17;24.50;76.60
7196;DHT22;3639;51.308;5.624;2022-09-01T11:44:40;25.00;76.10
7196;DHT22;3639;51.308;5.624;2022-09-01T11:47:11;25.20;75.80
7196;DHT22;3639;51.308;5.624;2022-09-01T11:49:53;25.30;75.80
7196;DHT22;3639;51.308;5.624;2022-09-01T11:52:22;25.50;75.90
7196;DHT22;3639;51.308;5.624;2022-09-01T11:54:49;25.70;75.40
7196;DHT22;3639;51.308;5.624;2022-09-01T11:57:22;25.80;73.80
7196;DHT22;3639;51.308;5.624;2022-09-01T11:59:48;25.70;73.40
7196;DHT22;3639;51.308;5.624;2022-09-01T12:02:22;25.80;72.70
7196;DHT22;3639;51.308;5.624;2022-09-01T12:04:51;25.80;72.50
7196;DHT22;3639;51.308;5.624;2022-09-01T12:07:33;25.80;73.40
7196;DHT22;3639;51.308;5.624;2022-09-01T12:10:01;25.80;70.20
7196;DHT22;3639;51.308;5.624;2022-09-01T12:12:37;25.50;70.00
7196;DHT22;3639;51.308;5.624;2022-09-01T12:15:21;25.40;68.80
7196;DHT22;3639;51.308;5.624;2022-09-01T12:17:47;25.20;69.50
7196;DHT22;3639;51.308;5.624;2022-09-01T12:20:33;25.00;69.70
7196;DHT22;3639;51.308;5.624;2022-09-01T12:22:59;25.10;72.20
7196;DHT22;3639;51.308;5.624;2022-09-01T12:25:33;25.20;72.20
7196;DHT22;3639;51.308;5.624;2022-09-01T12:28:01;25.30;70.40
7196;DHT22;3639;51.308;5.624;2022-09-01T12:30:27;25.40;70.70
7196;DHT22;3639;51.308;5.624;2022-09-01T12:32:53;25.40;69.50
7196;DHT22;3639;51.308;5.624;2022-09-01T12:35:24;25.40;69.40
7196;DHT22;3639;51.308;5.624;2022-09-01T12:37:51;25.40;70.10
7196;DHT22;3639;51.308;5.624;2022-09-01T12:40:34;25.30;70.20
7196;DHT22;3639;51.308;5.624;2022-09-01T12:43:00;25.30;69.70
7196;DHT22;3639;51.308;5.624;2022-09-01T12:48:06;25.30;69.80
7196;DHT22;3639;51.308;5.624;2022-09-01T12:50:34;25.30;70.70
7196;DHT22;3639;51.308;5.624;2022-09-01T12:53:00;25.40;69.90
7196;DHT22;3639;51.308;5.624;2022-09-01T12:55:33;25.50;67.80
7196;DHT22;3639;51.308;5.624;2022-09-01T12:58:06;25.30;67.00
7196;DHT22;3639;51.308;5.624;2022-09-01T13:00:35;25.30;67.60
7196;DHT22;3639;51.308;5.624;2022-09-01T13:05:39;25.20;68.50
7196;DHT22;3639;51.308;5.624;2022-09-01T13:08:11;25.10;67.90
7196;DHT22;3639;51.308;5.624;2022-09-01T13:10:42;25.10;68.80
7196;DHT22;3639;51.308;5.624;2022-09-01T13:13:10;25.30;68.80
7196;DHT22;3639;51.308;5.624;2022-09-01T13:15:38;25.20;68.20
7196;DHT22;3639;51.308;5.624;2022-09-01T13:18:04;25.10;68.30
7196;DHT22;3639;51.308;5.624;2022-09-01T13:20:30;25.20;69.00
7196;DHT22;3639;51.308;5.624;2022-09-01T13:22:56;25.30;66.80
7196;DHT22;3639;51.308;5.624;2022-09-01T13:25:22;25.30;67.30
7196;DHT22;3639;51.308;5.624;2022-09-01T13:27:49;25.30;67.60
7196;DHT22;3639;51.308;5.624;2022-09-01T13:30:17;25.30;66.40
7196;DHT22;3639;51.308;5.624;2022-09-01T13:32:44;25.40;66.60
7196;DHT22;3639;51.308;5.624;2022-09-01T13:35:12;25.40;66.70
7196;DHT22;3639;51.308;5.624;2022-09-01T13:37:39;25.40;66.00
7196;DHT22;3639;51.308;5.624;2022-09-01T13:40:06;25.40;66.70
7196;DHT22;3639;51.308;5.624;2022-09-01T13:42:33;25.40;64.90
7196;DHT22;3639;51.308;5.624;2022-09-01T13:44:58;25.30;63.90
7196;DHT22;3639;51.308;5.624;2022-09-01T13:47:26;25.20;64.20
7196;DHT22;3639;51.308;5.624;2022-09-01T13:49:51;25.10;63.60
7196;DHT22;3639;51.308;5.624;2022-09-01T13:52:17;25.00;64.90
7196;DHT22;3639;51.308;5.624;2022-09-01T13:54:43;25.10;65.50
7196;DHT22;3639;51.308;5.624;2022-09-01T13:57:09;25.30;65.60
7196;DHT22;3639;51.308;5.624;2022-09-01T13:59:40;25.40;65.50
7196;DHT22;3639;51.308;5.624;2022-09-01T14:02:06;25.40;65.90
7196;DHT22;3639;51.308;5.624;2022-09-01T14:04:32;25.50;66.60
7196;DHT22;3639;51.308;5.624;2022-09-01T14:06:58;25.50;66.00
7196;DHT22;3639;51.308;5.624;2022-09-01T14:09:24;25.60;65.40
7196;DHT22;3639;51.308;5.624;2022-09-01T14:11:53;25.60;65.20
7196;DHT22;3639;51.308;5.624;2022-09-01T14:14:20;25.60;65.30
7196;DHT22;3639;51.308;5.624;2022-09-01T14:16:46;25.50;64.70
7196;DHT22;3639;51.308;5.624;2022-09-01T14:19:12;25.40;65.90
7196;DHT22;3639;51.308;5.624;2022-09-01T14:21:38;25.50;65.50
7196;DHT22;3639;51.308;5.624;2022-09-01T14:24:04;25.50;65.60
7196;DHT22;3639;51.308;5.624;2022-09-01T14:26:30;25.40;65.90
7196;DHT22;3639;51.308;5.624;2022-09-01T14:28:56;25.40;65.10
7196;DHT22;3639;51.308;5.624;2022-09-01T14:31:22;25.40;65.40
7196;DHT22;3639;51.308;5.624;2022-09-01T14:33:48;25.50;65.60
7196;DHT22;3639;51.308;5.624;2022-09-01T14:36:25;25.50;66.10
7196;DHT22;3639;51.308;5.624;2022-09-01T14:38:51;25.50;65.50
7196;DHT22;3639;51.308;5.624;2022-09-01T14:41:18;25.60;65.90
7196;DHT22;3639;51.308;5.624;2022-09-01T14:43:47;25.60;65.10
7196;DHT22;3639;51.308;5.624;2022-09-01T14:46:14;25.60;65.30
7196;DHT22;3639;51.308;5.624;2022-09-01T14:48:40;25.60;64.50
7196;DHT22;3639;51.308;5.624;2022-09-01T14:51:07;25.50;64.40
7196;DHT22;3639;51.308;5.624;2022-09-01T14:53:34;25.50;65.40
7196;DHT22;3639;51.308;5.624;2022-09-01T14:56:00;25.70;65.50
7196;DHT22;3639;51.308;5.624;2022-09-01T14:58:27;25.70;64.80
7196;DHT22;3639;51.308;5.624;2022-09-01T15:00:54;25.70;64.60
7196;DHT22;3639;51.308;5.624;2022-09-01T15:03:24;25.60;64.70
7196;DHT22;3639;51.308;5.624;2022-09-01T15:05:51;25.70;65.50
7196;DHT22;3639;51.308;5.624;2022-09-01T15:08:17;25.70;64.70
7196;DHT22;3639;51.308;5.624;2022-09-01T15:10:43;25.60;65.30
7196;DHT22;3639;51.308;5.624;2022-09-01T15:13:09;25.70;65.60
7196;DHT22;3639;51.308;5.624;2022-09-01T15:15:36;25.70;64.30
7196;DHT22;3639;51.308;5.624;2022-09-01T15:18:02;25.60;64.80
7196;DHT22;3639;51.308;5.624;2022-09-01T15:20:29;25.60;64.90
7196;DHT22;3639;51.308;5.624;2022-09-01T15:23:21;25.70;65.20
7196;DHT22;3639;51.308;5.624;2022-09-01T15:25:50;25.70;64.70
7196;DHT22;3639;51.308;5.624;2022-09-01T15:28:16;25.70;65.40
7196;DHT22;3639;51.308;5.624;2022-09-01T15:30:42;25.70;65.10
7196;DHT22;3639;51.308;5.624;2022-09-01T15:33:10;25.80;64.60
7196;DHT22;3639;51.308;5.624;2022-09-01T15:35:36;25.80;64.90
7196;DHT22;3639;51.308;5.624;2022-09-01T15:38:02;25.80;65.50
7196;DHT22;3639;51.308;5.624;2022-09-01T15:40:28;25.80;65.30
7196;DHT22;3639;51.308;5.624;2022-09-01T15:42:55;25.90;66.20
7196;DHT22;3639;51.308;5.624;2022-09-01T15:45:23;26.00;66.20
7196;DHT22;3639;51.308;5.624;2022-09-01T15:47:49;26.00;65.70
7196;DHT22;3639;51.308;5.624;2022-09-01T15:50:18;26.10;65.70
7196;DHT22;3639;51.308;5.624;2022-09-01T15:53:03;26.10;66.00
7196;DHT22;3639;51.308;5.624;2022-09-01T15:55:46;26.10;65.40
7196;DHT22;3639;51.308;5.624;2022-09-01T15:58:14;26.20;65.50
7196;DHT22;3639;51.308;5.624;2022-09-01T16:00:42;26.30;65.90
7196;DHT22;3639;51.308;5.624;2022-09-01T16:03:09;26.30;65.20
7196;DHT22;3639;51.308;5.624;2022-09-01T16:05:37;26.20;65.10
7196;DHT22;3639;51.308;5.624;2022-09-01T16:08:05;26.20;65.60
7196;DHT22;3639;51.308;5.624;2022-09-01T16:10:38;26.10;65.20
7196;DHT22;3639;51.308;5.624;2022-09-01T16:13:05;26.00;65.60
7196;DHT22;3639;51.308;5.624;2022-09-01T16:15:31;25.80;65.60
7196;DHT22;3639;51.308;5.624;2022-09-01T16:18:37;25.70;65.90
7196;DHT22;3639;51.308;5.624;2022-09-01T16:23:48;25.70;65.80
7196;DHT22;3639;51.308;5.624;2022-09-01T16:26:15;25.80;66.10
7196;DHT22;3639;51.308;5.624;2022-09-01T16:28:47;25.70;65.60
7196;DHT22;3639;51.308;5.624;2022-09-01T16:31:18;25.70;65.00
7196;DHT22;3639;51.308;5.624;2022-09-01T16:33:49;25.80;65.40
7196;DHT22;3639;51.308;5.624;2022-09-01T16:39:02;25.70;65.90
7196;DHT22;3639;51.308;5.624;2022-09-01T16:58:18;25.40;66.30
7196;DHT22;3639;51.308;5.624;2022-09-01T17:10:00;25.20;67.40
7196;DHT22;3639;51.308;5.624;2022-09-01T17:12:46;25.20;67.80
7196;DHT22;3639;51.308;5.624;2022-09-01T17:20:40;24.90;69.30
7196;DHT22;3639;51.308;5.624;2022-09-01T17:23:09;24.80;69.90
7196;DHT22;3639;51.308;5.624;2022-09-01T17:25:50;24.70;70.10
7196;DHT22;3639;51.308;5.624;2022-09-01T17:28:29;24.70;70.40
7196;DHT22;3639;51.308;5.624;2022-09-01T17:31:10;24.60;70.50
7196;DHT22;3639;51.308;5.624;2022-09-01T17:39:14;24.20;71.60
7196;DHT22;3639;51.308;5.624;2022-09-01T17:41:49;24.10;72.30
7196;DHT22;3639;51.308;5.624;2022-09-01T17:44:40;24.00;73.10
7196;DHT22;3639;51.308;5.624;2022-09-01T17:47:26;23.90;73.80
7196;DHT22;3639;51.308;5.624;2022-09-01T17:50:21;23.80;74.50
7196;DHT22;3639;51.308;5.624;2022-09-01T18:08:55;23.20;77.70
7196;DHT22;3639;51.308;5.624;2022-09-01T18:11:39;23.10;77.90
7196;DHT22;3639;51.308;5.624;2022-09-01T18:14:13;23.00;78.20
7196;DHT22;3639;51.308;5.624;2022-09-01T18:16:57;22.90;78.50
7196;DHT22;3639;51.308;5.624;2022-09-01T18:19:31;22.80;78.80
7196;DHT22;3639;51.308;5.624;2022-09-01T18:22:02;22.70;79.50
7196;DHT22;3639;51.308;5.624;2022-09-01T18:24:52;22.70;80.10